Tara, Iowa
Current Conditions -  °F | °C
As of 8:35 AM on Friday 19 Dec 2014 (Local Time) from KFOD Reporting Station
Overcast Overcast  
Wind Chill: 22°   Ceiling: 500
Heat Index: 28°   Visibility: 3mi
Dew Point: 25°   Wind: 6mph
Humidity: 86%   Direction: 160°SSE
Pressure: 30.24"   Gusts: NA
Location:  42.5075°N, 94.2531°W
Report Text: KFOD 191435Z AUTO 16005KT 3SM OVC005 M02/M04 A3024 RMK AO1
Loading
Personal Weather Stations






























Interactive Weather Map New forecast layout! Learn more

10-Day Weather Forecast

Advertisements
Track Severe Weather on mobile